sensor_id;sensor_type;location;lat;lon;timestamp;temperature;humidity
41644;DHT22;44236;48.098;11.582;2023-09-19T00:00:20;23.20;64.10
41644;DHT22;44236;48.098;11.582;2023-09-19T00:02:52;23.10;64.00
41644;DHT22;44236;48.098;11.582;2023-09-19T00:05:18;23.20;64.10
41644;DHT22;44236;48.098;11.582;2023-09-19T00:07:52;23.20;64.10
41644;DHT22;44236;48.098;11.582;2023-09-19T00:10:21;23.10;64.20
41644;DHT22;44236;48.098;11.582;2023-09-19T00:12:53;23.20;64.30
41644;DHT22;44236;48.098;11.582;2023-09-19T00:15:23;23.10;64.10
41644;DHT22;44236;48.098;11.582;2023-09-19T00:17:48;23.10;64.30
41644;DHT22;44236;48.098;11.582;2023-09-19T00:20:15;23.20;64.30
41644;DHT22;44236;48.098;11.582;2023-09-19T00:22:43;23.10;64.20
41644;DHT22;44236;48.098;11.582;2023-09-19T00:25:09;23.10;64.10
41644;DHT22;44236;48.098;11.582;2023-09-19T00:27:35;23.10;64.20
41644;DHT22;44236;48.098;11.582;2023-09-19T00:30:07;23.10;64.00
41644;DHT22;44236;48.098;11.582;2023-09-19T00:32:34;23.10;64.20
41644;DHT22;44236;48.098;11.582;2023-09-19T00:35:00;23.10;64.70
41644;DHT22;44236;48.098;11.582;2023-09-19T00:37:25;23.10;64.20
41644;DHT22;44236;48.098;11.582;2023-09-19T00:39:51;23.10;64.30
41644;DHT22;44236;48.098;11.582;2023-09-19T00:42:20;23.10;64.20
41644;DHT22;44236;48.098;11.582;2023-09-19T00:44:46;23.10;64.10
41644;DHT22;44236;48.098;11.582;2023-09-19T00:47:12;23.10;64.20
41644;DHT22;44236;48.098;11.582;2023-09-19T00:49:45;23.10;64.30
41644;DHT22;44236;48.098;11.582;2023-09-19T00:52:16;23.10;64.30
41644;DHT22;44236;48.098;11.582;2023-09-19T00:54:46;23.10;64.20
41644;DHT22;44236;48.098;11.582;2023-09-19T00:57:12;23.10;64.20
41644;DHT22;44236;48.098;11.582;2023-09-19T00:59:37;23.10;64.20
41644;DHT22;44236;48.098;11.582;2023-09-19T01:02:04;23.10;64.20
41644;DHT22;44236;48.098;11.582;2023-09-19T01:04:29;23.00;64.10
41644;DHT22;44236;48.098;11.582;2023-09-19T01:06:56;23.00;64.20
41644;DHT22;44236;48.098;11.582;2023-09-19T01:09:23;23.00;64.30
41644;DHT22;44236;48.098;11.582;2023-09-19T01:11:50;23.10;64.30
41644;DHT22;44236;48.098;11.582;2023-09-19T01:17:08;23.00;64.20
41644;DHT22;44236;48.098;11.582;2023-09-19T01:28:31;23.00;64.20
41644;DHT22;44236;48.098;11.582;2023-09-19T01:31:02;23.00;64.20
41644;DHT22;44236;48.098;11.582;2023-09-19T01:33:31;23.00;64.10
41644;DHT22;44236;48.098;11.582;2023-09-19T01:36:16;23.00;64.10
41644;DHT22;44236;48.098;11.582;2023-09-19T01:38:42;23.00;64.10
41644;DHT22;44236;48.098;11.582;2023-09-19T01:41:17;23.00;64.00
41644;DHT22;44236;48.098;11.582;2023-09-19T01:43:48;23.00;64.20
41644;DHT22;44236;48.098;11.582;2023-09-19T01:46:22;23.00;64.00
41644;DHT22;44236;48.098;11.582;2023-09-19T01:54:20;23.00;64.20
41644;DHT22;44236;48.098;11.582;2023-09-19T01:59:45;23.00;64.10
41644;DHT22;44236;48.098;11.582;2023-09-19T02:02:14;22.90;63.80
41644;DHT22;44236;48.098;11.582;2023-09-19T02:04:40;22.90;64.00
41644;DHT22;44236;48.098;11.582;2023-09-19T02:07:06;23.00;63.90
41644;DHT22;44236;48.098;11.582;2023-09-19T02:09:31;23.00;63.90
41644;DHT22;44236;48.098;11.582;2023-09-19T02:12:01;22.90;64.00
41644;DHT22;44236;48.098;11.582;2023-09-19T02:14:27;23.00;64.00
41644;DHT22;44236;48.098;11.582;2023-09-19T02:16:53;23.00;63.90
41644;DHT22;44236;48.098;11.582;2023-09-19T02:19:19;22.90;63.80
41644;DHT22;44236;48.098;11.582;2023-09-19T02:21:46;22.90;63.70
41644;DHT22;44236;48.098;11.582;2023-09-19T02:24:14;22.90;63.80
41644;DHT22;44236;48.098;11.582;2023-09-19T02:26:40;22.90;63.80
41644;DHT22;44236;48.098;11.582;2023-09-19T02:29:06;22.90;63.70
41644;DHT22;44236;48.098;11.582;2023-09-19T02:31:32;22.90;63.80
41644;DHT22;44236;48.098;11.582;2023-09-19T02:33:57;22.90;63.90
41644;DHT22;44236;48.098;11.582;2023-09-19T02:36:23;22.90;63.80
41644;DHT22;44236;48.098;11.582;2023-09-19T02:38:49;22.90;63.80
41644;DHT22;44236;48.098;11.582;2023-09-19T02:41:15;22.90;63.70
41644;DHT22;44236;48.098;11.582;2023-09-19T02:43:40;22.90;63.60
41644;DHT22;44236;48.098;11.582;2023-09-19T02:46:08;22.90;63.60
41644;DHT22;44236;48.098;11.582;2023-09-19T02:48:34;22.90;63.60
41644;DHT22;44236;48.098;11.582;2023-09-19T02:51:01;22.90;63.70
41644;DHT22;44236;48.098;11.582;2023-09-19T02:53:27;22.90;63.60
41644;DHT22;44236;48.098;11.582;2023-09-19T02:55:53;22.90;63.70
41644;DHT22;44236;48.098;11.582;2023-09-19T02:58:18;22.90;63.60
41644;DHT22;44236;48.098;11.582;2023-09-19T03:00:44;22.90;63.70
41644;DHT22;44236;48.098;11.582;2023-09-19T03:03:15;22.90;63.70
41644;DHT22;44236;48.098;11.582;2023-09-19T03:05:44;22.90;63.60
41644;DHT22;44236;48.098;11.582;2023-09-19T03:08:15;22.90;63.60
41644;DHT22;44236;48.098;11.582;2023-09-19T03:10:42;22.90;63.50
41644;DHT22;44236;48.098;11.582;2023-09-19T03:13:08;22.90;63.60
41644;DHT22;44236;48.098;11.582;2023-09-19T03:15:35;22.90;63.70
41644;DHT22;44236;48.098;11.582;2023-09-19T03:18:04;22.90;63.60
41644;DHT22;44236;48.098;11.582;2023-09-19T03:20:31;22.90;63.60
41644;DHT22;44236;48.098;11.582;2023-09-19T03:22:56;22.90;63.60
41644;DHT22;44236;48.098;11.582;2023-09-19T03:25:22;22.90;63.50
41644;DHT22;44236;48.098;11.582;2023-09-19T03:27:49;22.80;63.60
41644;DHT22;44236;48.098;11.582;2023-09-19T03:30:15;22.80;63.60
41644;DHT22;44236;48.098;11.582;2023-09-19T03:32:46;22.90;63.70
41644;DHT22;44236;48.098;11.582;2023-09-19T03:35:13;22.90;63.50
41644;DHT22;44236;48.098;11.582;2023-09-19T03:37:40;22.80;63.50
41644;DHT22;44236;48.098;11.582;2023-09-19T03:40:07;22.80;63.50
41644;DHT22;44236;48.098;11.582;2023-09-19T03:42:33;22.80;63.50
41644;DHT22;44236;48.098;11.582;2023-09-19T03:45:01;22.80;63.40
41644;DHT22;44236;48.098;11.582;2023-09-19T03:47:31;22.80;63.50
41644;DHT22;44236;48.098;11.582;2023-09-19T03:49:56;22.80;63.40
41644;DHT22;44236;48.098;11.582;2023-09-19T03:52:22;22.80;63.40
41644;DHT22;44236;48.098;11.582;2023-09-19T03:54:47;22.80;63.40
41644;DHT22;44236;48.098;11.582;2023-09-19T03:57:13;22.80;63.60
41644;DHT22;44236;48.098;11.582;2023-09-19T03:59:41;22.80;63.30
41644;DHT22;44236;48.098;11.582;2023-09-19T04:02:11;22.80;63.40
41644;DHT22;44236;48.098;11.582;2023-09-19T04:04:48;22.80;63.40
41644;DHT22;44236;48.098;11.582;2023-09-19T04:07:13;22.80;63.30
41644;DHT22;44236;48.098;11.582;2023-09-19T04:09:40;22.80;63.20
41644;DHT22;44236;48.098;11.582;2023-09-19T04:12:07;22.80;63.30
41644;DHT22;44236;48.098;11.582;2023-09-19T04:14:37;22.80;63.30
41644;DHT22;44236;48.098;11.582;2023-09-19T04:17:03;22.80;63.30
41644;DHT22;44236;48.098;11.582;2023-09-19T04:19:32;22.80;63.30
41644;DHT22;44236;48.098;11.582;2023-09-19T04:21:57;22.80;63.30
41644;DHT22;44236;48.098;11.582;2023-09-19T04:24:23;22.80;63.40
41644;DHT22;44236;48.098;11.582;2023-09-19T04:26:49;22.80;63.30
41644;DHT22;44236;48.098;11.582;2023-09-19T04:29:15;22.80;63.40
41644;DHT22;44236;48.098;11.582;2023-09-19T04:31:42;22.80;63.30
41644;DHT22;44236;48.098;11.582;2023-09-19T04:34:10;22.80;63.40
41644;DHT22;44236;48.098;11.582;2023-09-19T04:36:37;22.80;63.30
41644;DHT22;44236;48.098;11.582;2023-09-19T04:39:03;22.80;63.30
41644;DHT22;44236;48.098;11.582;2023-09-19T04:41:33;22.80;63.40
41644;DHT22;44236;48.098;11.582;2023-09-19T04:43:59;22.70;63.20
41644;DHT22;44236;48.098;11.582;2023-09-19T04:46:25;22.70;63.50
41644;DHT22;44236;48.098;11.582;2023-09-19T04:48:52;22.80;64.10
41644;DHT22;44236;48.098;11.582;2023-09-19T04:51:17;22.80;64.30
41644;DHT22;44236;48.098;11.582;2023-09-19T04:53:44;22.80;64.00
41644;DHT22;44236;48.098;11.582;2023-09-19T04:56:09;22.80;63.60
41644;DHT22;44236;48.098;11.582;2023-09-19T04:58:35;22.80;63.60
41644;DHT22;44236;48.098;11.582;2023-09-19T05:01:01;22.80;63.60
41644;DHT22;44236;48.098;11.582;2023-09-19T05:03:27;22.80;63.60
41644;DHT22;44236;48.098;11.582;2023-09-19T05:05:53;22.80;63.30
41644;DHT22;44236;48.098;11.582;2023-09-19T05:08:18;22.80;63.00
41644;DHT22;44236;48.098;11.582;2023-09-19T05:10:44;22.80;60.90
41644;DHT22;44236;48.098;11.582;2023-09-19T05:13:11;22.80;60.00
41644;DHT22;44236;48.098;11.582;2023-09-19T05:15:37;22.70;58.80
41644;DHT22;44236;48.098;11.582;2023-09-19T05:18:04;22.70;58.60
41644;DHT22;44236;48.098;11.582;2023-09-19T05:20:32;22.70;60.00
41644;DHT22;44236;48.098;11.582;2023-09-19T05:23:04;22.70;61.10
41644;DHT22;44236;48.098;11.582;2023-09-19T05:25:34;22.70;61.40
41644;DHT22;44236;48.098;11.582;2023-09-19T05:28:02;22.70;61.30
41644;DHT22;44236;48.098;11.582;2023-09-19T05:30:31;22.80;61.30
41644;DHT22;44236;48.098;11.582;2023-09-19T05:32:58;22.80;61.40
41644;DHT22;44236;48.098;11.582;2023-09-19T05:35:24;22.80;61.40
41644;DHT22;44236;48.098;11.582;2023-09-19T05:37:51;22.70;61.40
41644;DHT22;44236;48.098;11.582;2023-09-19T05:40:19;22.70;61.40
41644;DHT22;44236;48.098;11.582;2023-09-19T05:42:45;22.70;62.00
41644;DHT22;44236;48.098;11.582;2023-09-19T05:45:11;22.80;61.70
41644;DHT22;44236;48.098;11.582;2023-09-19T05:47:41;22.70;61.50
41644;DHT22;44236;48.098;11.582;2023-09-19T05:50:09;22.80;61.70
41644;DHT22;44236;48.098;11.582;2023-09-19T05:52:35;22.70;61.80
41644;DHT22;44236;48.098;11.582;2023-09-19T05:55:06;22.70;62.20
41644;DHT22;44236;48.098;11.582;2023-09-19T05:57:36;22.70;62.40
41644;DHT22;44236;48.098;11.582;2023-09-19T06:00:02;22.70;62.80
41644;DHT22;44236;48.098;11.582;2023-09-19T06:02:35;22.80;62.80
41644;DHT22;44236;48.098;11.582;2023-09-19T06:05:01;22.70;62.80
41644;DHT22;44236;48.098;11.582;2023-09-19T06:07:29;22.80;63.00
41644;DHT22;44236;48.098;11.582;2023-09-19T06:10:05;22.80;62.90
41644;DHT22;44236;48.098;11.582;2023-09-19T06:12:37;22.80;62.80
41644;DHT22;44236;48.098;11.582;2023-09-19T06:15:04;22.80;62.70
41644;DHT22;44236;48.098;11.582;2023-09-19T06:17:34;22.80;62.90
41644;DHT22;44236;48.098;11.582;2023-09-19T06:20:05;22.80;63.10
41644;DHT22;44236;48.098;11.582;2023-09-19T06:22:44;22.80;62.90
41644;DHT22;44236;48.098;11.582;2023-09-19T06:25:11;22.80;63.00
41644;DHT22;44236;48.098;11.582;2023-09-19T06:27:39;22.80;63.00
41644;DHT22;44236;48.098;11.582;2023-09-19T06:30:08;22.80;63.40
41644;DHT22;44236;48.098;11.582;2023-09-19T06:32:35;22.80;63.30
41644;DHT22;44236;48.098;11.582;2023-09-19T06:35:00;22.90;63.00
41644;DHT22;44236;48.098;11.582;2023-09-19T06:37:29;22.80;62.90
41644;DHT22;44236;48.098;11.582;2023-09-19T06:39:56;22.90;63.00
41644;DHT22;44236;48.098;11.582;2023-09-19T06:42:22;22.90;63.00
41644;DHT22;44236;48.098;11.582;2023-09-19T06:44:49;22.90;63.20
41644;DHT22;44236;48.098;11.582;2023-09-19T06:47:14;22.90;63.30
41644;DHT22;44236;48.098;11.582;2023-09-19T06:49:41;22.90;63.30
41644;DHT22;44236;48.098;11.582;2023-09-19T06:52:10;22.90;63.20
41644;DHT22;44236;48.098;11.582;2023-09-19T06:54:39;22.90;63.10
41644;DHT22;44236;48.098;11.582;2023-09-19T06:57:05;22.90;63.10
41644;DHT22;44236;48.098;11.582;2023-09-19T06:59:31;22.90;63.10
41644;DHT22;44236;48.098;11.582;2023-09-19T07:01:57;22.90;63.40
41644;DHT22;44236;48.098;11.582;2023-09-19T07:04:27;22.90;63.90
41644;DHT22;44236;48.098;11.582;2023-09-19T07:06:53;22.90;63.20
41644;DHT22;44236;48.098;11.582;2023-09-19T07:09:18;22.90;63.30
41644;DHT22;44236;48.098;11.582;2023-09-19T07:11:45;22.90;63.40
41644;DHT22;44236;48.098;11.582;2023-09-19T07:14:11;22.90;63.40
41644;DHT22;44236;48.098;11.582;2023-09-19T07:16:38;22.90;63.20
41644;DHT22;44236;48.098;11.582;2023-09-19T07:19:05;22.90;63.10
41644;DHT22;44236;48.098;11.582;2023-09-19T07:21:30;22.90;63.30
41644;DHT22;44236;48.098;11.582;2023-09-19T07:23:59;22.90;63.10
41644;DHT22;44236;48.098;11.582;2023-09-19T07:26:26;22.90;63.70
41644;DHT22;44236;48.098;11.582;2023-09-19T07:28:53;22.90;63.10
41644;DHT22;44236;48.098;11.582;2023-09-19T07:31:19;22.90;63.20
41644;DHT22;44236;48.098;11.582;2023-09-19T07:33:45;22.90;63.20
41644;DHT22;44236;48.098;11.582;2023-09-19T07:36:11;22.90;63.20
41644;DHT22;44236;48.098;11.582;2023-09-19T07:38:39;23.00;63.10
41644;DHT22;44236;48.098;11.582;2023-09-19T07:41:05;23.00;63.10
41644;DHT22;44236;48.098;11.582;2023-09-19T07:43:31;23.00;63.10
41644;DHT22;44236;48.098;11.582;2023-09-19T07:45:57;23.00;63.10
41644;DHT22;44236;48.098;11.582;2023-09-19T07:48:26;23.00;63.10
41644;DHT22;44236;48.098;11.582;2023-09-19T07:50:51;23.00;63.00
41644;DHT22;44236;48.098;11.582;2023-09-19T07:53:17;23.00;62.90
41644;DHT22;44236;48.098;11.582;2023-09-19T07:55:43;23.00;62.90
41644;DHT22;44236;48.098;11.582;2023-09-19T07:58:13;23.00;62.90
41644;DHT22;44236;48.098;11.582;2023-09-19T08:00:41;23.00;63.00
41644;DHT22;44236;48.098;11.582;2023-09-19T08:03:07;23.00;62.80
41644;DHT22;44236;48.098;11.582;2023-09-19T08:05:34;23.00;62.70
41644;DHT22;44236;48.098;11.582;2023-09-19T08:07:59;23.10;62.80
41644;DHT22;44236;48.098;11.582;2023-09-19T08:10:26;23.00;62.70
41644;DHT22;44236;48.098;11.582;2023-09-19T08:12:53;23.10;62.70
41644;DHT22;44236;48.098;11.582;2023-09-19T08:15:23;23.10;62.80
41644;DHT22;44236;48.098;11.582;2023-09-19T08:17:52;23.10;62.70
41644;DHT22;44236;48.098;11.582;2023-09-19T08:20:18;23.20;62.70
41644;DHT22;44236;48.098;11.582;2023-09-19T08:22:50;23.20;62.60
41644;DHT22;44236;48.098;11.582;2023-09-19T08:25:18;23.20;62.60
41644;DHT22;44236;48.098;11.582;2023-09-19T08:27:45;23.20;62.50
41644;DHT22;44236;48.098;11.582;2023-09-19T08:30:15;23.20;62.40
41644;DHT22;44236;48.098;11.582;2023-09-19T08:32:41;23.20;62.30
41644;DHT22;44236;48.098;11.582;2023-09-19T08:35:08;23.20;62.30
41644;DHT22;44236;48.098;11.582;2023-09-19T08:37:35;23.20;62.30
41644;DHT22;44236;48.098;11.582;2023-09-19T08:40:00;23.20;62.20
41644;DHT22;44236;48.098;11.582;2023-09-19T08:42:26;23.20;62.20
41644;DHT22;44236;48.098;11.582;2023-09-19T08:45:14;23.20;62.20
41644;DHT22;44236;48.098;11.582;2023-09-19T08:47:47;23.20;62.10
41644;DHT22;44236;48.098;11.582;2023-09-19T08:50:20;23.20;62.10
41644;DHT22;44236;48.098;11.582;2023-09-19T08:52:51;23.30;62.10
41644;DHT22;44236;48.098;11.582;2023-09-19T08:55:19;23.20;62.10
41644;DHT22;44236;48.098;11.582;2023-09-19T08:57:49;23.30;62.20
41644;DHT22;44236;48.098;11.582;2023-09-19T09:00:16;23.20;62.10
41644;DHT22;44236;48.098;11.582;2023-09-19T09:02:47;23.30;62.20
41644;DHT22;44236;48.098;11.582;2023-09-19T09:05:13;23.30;62.10
41644;DHT22;44236;48.098;11.582;2023-09-19T09:07:41;23.30;62.10
41644;DHT22;44236;48.098;11.582;2023-09-19T09:10:07;23.30;62.10
41644;DHT22;44236;48.098;11.582;2023-09-19T09:12:35;23.30;62.20
41644;DHT22;44236;48.098;11.582;2023-09-19T09:15:07;23.30;62.20
41644;DHT22;44236;48.098;11.582;2023-09-19T09:17:34;23.30;62.30
41644;DHT22;44236;48.098;11.582;2023-09-19T09:20:00;23.30;62.10
41644;DHT22;44236;48.098;11.582;2023-09-19T09:22:25;23.30;62.20
41644;DHT22;44236;48.098;11.582;2023-09-19T09:24:56;23.30;62.50
41644;DHT22;44236;48.098;11.582;2023-09-19T09:27:24;23.30;62.30
41644;DHT22;44236;48.098;11.582;2023-09-19T09:29:51;23.30;62.50
41644;DHT22;44236;48.098;11.582;2023-09-19T09:32:23;23.30;63.00
41644;DHT22;44236;48.098;11.582;2023-09-19T09:34:51;23.30;62.40
41644;DHT22;44236;48.098;11.582;2023-09-19T09:37:17;23.30;62.30
41644;DHT22;44236;48.098;11.582;2023-09-19T09:39:58;23.30;62.30
41644;DHT22;44236;48.098;11.582;2023-09-19T09:42:38;23.30;62.30
41644;DHT22;44236;48.098;11.582;2023-09-19T09:45:23;23.30;62.30
41644;DHT22;44236;48.098;11.582;2023-09-19T09:47:58;23.30;62.40
41644;DHT22;44236;48.098;11.582;2023-09-19T09:50:33;23.30;62.40
41644;DHT22;44236;48.098;11.582;2023-09-19T09:58:40;23.30;62.40
41644;DHT22;44236;48.098;11.582;2023-09-19T10:01:14;23.30;62.40
41644;DHT22;44236;48.098;11.582;2023-09-19T10:03:42;23.30;62.40
41644;DHT22;44236;48.098;11.582;2023-09-19T10:06:16;23.40;62.40
41644;DHT22;44236;48.098;11.582;2023-09-19T10:09:06;23.40;62.40
41644;DHT22;44236;48.098;11.582;2023-09-19T10:11:43;23.40;62.20
41644;DHT22;44236;48.098;11.582;2023-09-19T10:14:19;23.40;62.30
41644;DHT22;44236;48.098;11.582;2023-09-19T10:16:49;23.40;62.10
41644;DHT22;44236;48.098;11.582;2023-09-19T10:19:20;23.40;62.20
41644;DHT22;44236;48.098;11.582;2023-09-19T10:21:49;23.40;62.20
41644;DHT22;44236;48.098;11.582;2023-09-19T10:24:17;23.40;61.90
41644;DHT22;44236;48.098;11.582;2023-09-19T10:26:44;23.40;62.20
41644;DHT22;44236;48.098;11.582;2023-09-19T10:29:13;23.40;62.10
41644;DHT22;44236;48.098;11.582;2023-09-19T10:31:39;23.40;62.00
41644;DHT22;44236;48.098;11.582;2023-09-19T10:34:15;23.40;61.90
41644;DHT22;44236;48.098;11.582;2023-09-19T10:36:45;23.50;61.80
41644;DHT22;44236;48.098;11.582;2023-09-19T10:39:14;23.50;61.70
41644;DHT22;44236;48.098;11.582;2023-09-19T10:41:44;23.50;61.90
41644;DHT22;44236;48.098;11.582;2023-09-19T10:44:13;23.50;61.70
41644;DHT22;44236;48.098;11.582;2023-09-19T10:46:39;23.50;61.70
41644;DHT22;44236;48.098;11.582;2023-09-19T10:49:06;23.50;61.60
41644;DHT22;44236;48.098;11.582;2023-09-19T10:51:42;23.50;61.70
41644;DHT22;44236;48.098;11.582;2023-09-19T10:54:11;23.50;61.60
41644;DHT22;44236;48.098;11.582;2023-09-19T10:56:46;23.50;61.60
41644;DHT22;44236;48.098;11.582;2023-09-19T10:59:21;23.50;61.60
41644;DHT22;44236;48.098;11.582;2023-09-19T11:01:51;23.50;61.50
41644;DHT22;44236;48.098;11.582;2023-09-19T11:04:33;23.50;61.50
41644;DHT22;44236;48.098;11.582;2023-09-19T11:09:52;23.60;61.60
41644;DHT22;44236;48.098;11.582;2023-09-19T11:15:03;23.60;61.50
41644;DHT22;44236;48.098;11.582;2023-09-19T11:17:43;23.60;61.40
41644;DHT22;44236;48.098;11.582;2023-09-19T11:30:47;23.60;61.40
41644;DHT22;44236;48.098;11.582;2023-09-19T11:36:14;23.60;61.30
41644;DHT22;44236;48.098;11.582;2023-09-19T11:49:18;23.60;61.40
41644;DHT22;44236;48.098;11.582;2023-09-19T11:51:52;23.30;61.20
41644;DHT22;44236;48.098;11.582;2023-09-19T11:54:17;23.70;61.40
41644;DHT22;44236;48.098;11.582;2023-09-19T11:56:45;23.70;61.30
41644;DHT22;44236;48.098;11.582;2023-09-19T11:59:11;23.60;61.40
41644;DHT22;44236;48.098;11.582;2023-09-19T12:01:51;23.60;61.40
41644;DHT22;44236;48.098;11.582;2023-09-19T12:04:44;23.70;61.50
41644;DHT22;44236;48.098;11.582;2023-09-19T12:07:15;23.60;61.40
41644;DHT22;44236;48.098;11.582;2023-09-19T12:10:04;23.60;61.50
41644;DHT22;44236;48.098;11.582;2023-09-19T12:12:31;23.60;61.50
41644;DHT22;44236;48.098;11.582;2023-09-19T12:14:59;23.60;61.50
41644;DHT22;44236;48.098;11.582;2023-09-19T12:17:37;23.60;61.50
41644;DHT22;44236;48.098;11.582;2023-09-19T12:20:02;23.70;61.60
41644;DHT22;44236;48.098;11.582;2023-09-19T12:22:42;23.60;61.40
41644;DHT22;44236;48.098;11.582;2023-09-19T12:25:09;23.60;61.30
41644;DHT22;44236;48.098;11.582;2023-09-19T12:27:49;23.60;61.40
41644;DHT22;44236;48.098;11.582;2023-09-19T12:30:19;23.60;61.50
41644;DHT22;44236;48.098;11.582;2023-09-19T12:32:46;23.70;62.00
41644;DHT22;44236;48.098;11.582;2023-09-19T12:35:33;23.70;61.50
41644;DHT22;44236;48.098;11.582;2023-09-19T12:38:02;23.70;61.60
41644;DHT22;44236;48.098;11.582;2023-09-19T12:40:29;23.70;61.60
41644;DHT22;44236;48.098;11.582;2023-09-19T12:42:59;23.70;61.60
41644;DHT22;44236;48.098;11.582;2023-09-19T12:45:25;23.70;61.60
41644;DHT22;44236;48.098;11.582;2023-09-19T12:48:23;23.70;61.40
41644;DHT22;44236;48.098;11.582;2023-09-19T12:53:37;23.70;61.50
41644;DHT22;44236;48.098;11.582;2023-09-19T12:56:08;23.70;61.50
41644;DHT22;44236;48.098;11.582;2023-09-19T12:58:48;23.70;61.50
41644;DHT22;44236;48.098;11.582;2023-09-19T13:01:15;23.70;61.40
41644;DHT22;44236;48.098;11.582;2023-09-19T13:03:41;23.70;61.40
41644;DHT22;44236;48.098;11.582;2023-09-19T13:06:10;23.70;61.40
41644;DHT22;44236;48.098;11.582;2023-09-19T13:08:39;23.70;61.50
41644;DHT22;44236;48.098;11.582;2023-09-19T13:13:42;23.70;61.40
41644;DHT22;44236;48.098;11.582;2023-09-19T13:16:09;23.70;61.40
41644;DHT22;44236;48.098;11.582;2023-09-19T13:18:42;23.70;61.30
41644;DHT22;44236;48.098;11.582;2023-09-19T13:21:11;23.70;61.30
41644;DHT22;44236;48.098;11.582;2023-09-19T13:23:43;23.70;61.40
41644;DHT22;44236;48.098;11.582;2023-09-19T13:26:10;23.70;61.30
41644;DHT22;44236;48.098;11.582;2023-09-19T13:28:37;23.70;61.20
41644;DHT22;44236;48.098;11.582;2023-09-19T13:31:03;23.70;61.30
41644;DHT22;44236;48.098;11.582;2023-09-19T13:33:28;23.70;61.40
41644;DHT22;44236;48.098;11.582;2023-09-19T13:35:54;23.70;61.30
41644;DHT22;44236;48.098;11.582;2023-09-19T13:38:20;23.70;61.20
41644;DHT22;44236;48.098;11.582;2023-09-19T13:40:47;23.70;61.20
41644;DHT22;44236;48.098;11.582;2023-09-19T13:43:13;23.70;61.20
41644;DHT22;44236;48.098;11.582;2023-09-19T13:45:40;23.60;61.30
41644;DHT22;44236;48.098;11.582;2023-09-19T13:48:07;23.70;61.20
41644;DHT22;44236;48.098;11.582;2023-09-19T13:50:34;23.70;61.30
41644;DHT22;44236;48.098;11.582;2023-09-19T13:53:02;23.60;61.10
41644;DHT22;44236;48.098;11.582;2023-09-19T13:55:28;23.70;61.20
41644;DHT22;44236;48.098;11.582;2023-09-19T13:57:53;23.70;61.20
41644;DHT22;44236;48.098;11.582;2023-09-19T14:00:21;23.70;61.20
41644;DHT22;44236;48.098;11.582;2023-09-19T14:02:48;23.70;61.10
41644;DHT22;44236;48.098;11.582;2023-09-19T14:05:14;23.70;61.10
41644;DHT22;44236;48.098;11.582;2023-09-19T14:07:42;23.60;61.10
41644;DHT22;44236;48.098;11.582;2023-09-19T14:10:09;23.60;61.00
41644;DHT22;44236;48.098;11.582;2023-09-19T14:12:36;23.70;61.10
41644;DHT22;44236;48.098;11.582;2023-09-19T14:15:06;23.60;61.00
41644;DHT22;44236;48.098;11.582;2023-09-19T14:17:32;23.60;61.00
41644;DHT22;44236;48.098;11.582;2023-09-19T14:19:58;23.60;61.10
41644;DHT22;44236;48.098;11.582;2023-09-19T14:22:24;23.60;61.10
41644;DHT22;44236;48.098;11.582;2023-09-19T14:24:49;23.70;61.10
41644;DHT22;44236;48.098;11.582;2023-09-19T14:27:15;23.60;61.60
41644;DHT22;44236;48.098;11.582;2023-09-19T14:29:40;23.70;61.10
41644;DHT22;44236;48.098;11.582;2023-09-19T14:32:06;23.70;61.00
41644;DHT22;44236;48.098;11.582;2023-09-19T14:34:32;23.60;61.00
41644;DHT22;44236;48.098;11.582;2023-09-19T14:36:58;23.60;61.00
41644;DHT22;44236;48.098;11.582;2023-09-19T14:39:24;23.60;60.90
41644;DHT22;44236;48.098;11.582;2023-09-19T14:41:50;23.70;61.00
41644;DHT22;44236;48.098;11.582;2023-09-19T14:44:16;23.60;61.00
41644;DHT22;44236;48.098;11.582;2023-09-19T14:46:42;23.60;61.00
41644;DHT22;44236;48.098;11.582;2023-09-19T14:49:09;23.70;61.00
41644;DHT22;44236;48.098;11.582;2023-09-19T14:51:37;23.60;60.90
41644;DHT22;44236;48.098;11.582;2023-09-19T14:54:03;23.60;60.90
41644;DHT22;44236;48.098;11.582;2023-09-19T14:56:29;23.60;60.90
41644;DHT22;44236;48.098;11.582;2023-09-19T14:58:56;23.60;60.90
41644;DHT22;44236;48.098;11.582;2023-09-19T15:01:22;23.60;61.00
41644;DHT22;44236;48.098;11.582;2023-09-19T15:03:48;23.60;60.90
41644;DHT22;44236;48.098;11.582;2023-09-19T15:06:15;23.60;61.10
41644;DHT22;44236;48.098;11.582;2023-09-19T15:08:45;23.60;59.50
41644;DHT22;44236;48.098;11.582;2023-09-19T15:11:17;23.70;58.30
41644;DHT22;44236;48.098;11.582;2023-09-19T15:13:43;23.70;56.00
41644;DHT22;44236;48.098;11.582;2023-09-19T15:16:09;23.60;56.80
41644;DHT22;44236;48.098;11.582;2023-09-19T15:18:40;23.60;55.40
41644;DHT22;44236;48.098;11.582;2023-09-19T15:21:08;23.60;55.20
41644;DHT22;44236;48.098;11.582;2023-09-19T15:23:35;23.60;54.90
41644;DHT22;44236;48.098;11.582;2023-09-19T15:26:05;23.60;55.50
41644;DHT22;44236;48.098;11.582;2023-09-19T15:28:32;23.50;54.20
41644;DHT22;44236;48.098;11.582;2023-09-19T15:31:06;23.50;54.40
41644;DHT22;44236;48.098;11.582;2023-09-19T15:33:32;23.60;55.10
41644;DHT22;44236;48.098;11.582;2023-09-19T15:38:27;23.60;53.70
41644;DHT22;44236;48.098;11.582;2023-09-19T15:40:53;23.50;52.40
41644;DHT22;44236;48.098;11.582;2023-09-19T15:43:19;23.50;53.20
41644;DHT22;44236;48.098;11.582;2023-09-19T15:45:46;23.50;53.70
41644;DHT22;44236;48.098;11.582;2023-09-19T15:48:13;23.50;53.10
41644;DHT22;44236;48.098;11.582;2023-09-19T15:50:39;23.50;53.20
41644;DHT22;44236;48.098;11.582;2023-09-19T15:53:07;23.50;52.80
41644;DHT22;44236;48.098;11.582;2023-09-19T15:55:41;23.50;53.10
41644;DHT22;44236;48.098;11.582;2023-09-19T15:58:07;23.40;53.10
41644;DHT22;44236;48.098;11.582;2023-09-19T16:00:34;23.40;53.00
41644;DHT22;44236;48.098;11.582;2023-09-19T16:03:03;23.40;53.00
41644;DHT22;44236;48.098;11.582;2023-09-19T16:05:35;23.40;52.90
41644;DHT22;44236;48.098;11.582;2023-09-19T16:08:06;23.40;52.70
41644;DHT22;44236;48.098;11.582;2023-09-19T16:10:36;23.50;52.70
41644;DHT22;44236;48.098;11.582;2023-09-19T16:13:05;23.40;51.30
41644;DHT22;44236;48.098;11.582;2023-09-19T16:15:30;23.40;51.40
41644;DHT22;44236;48.098;11.582;2023-09-19T16:17:56;23.30;51.80
41644;DHT22;44236;48.098;11.582;2023-09-19T16:20:21;23.30;51.80
41644;DHT22;44236;48.098;11.582;2023-09-19T16:22:48;23.30;52.60
41644;DHT22;44236;48.098;11.582;2023-09-19T16:25:14;23.30;53.50